Aviation Digital Data Service (ADDS)

Output produced by METARs form (1920 UTC 27 August 2015)
found at http://aviationweather.gov/adds/metars/
 
KBVI 271720Z 2718/2818 31004KT P6SM BKN060 
     FM272300 33004KT P6SM SCT050 
     FM280800 00000KT 3SM BR SKC 
     FM281300 VRB03KT P6SM SKC